createdAt,value
2023-03-22T00:04:49.121Z,12.30
2023-03-22T00:09:51.190Z,12.40
2023-03-22T00:14:53.635Z,12.50
2023-03-22T00:19:55.691Z,12.50
2023-03-22T00:24:57.847Z,12.60
2023-03-22T00:29:59.776Z,12.70
2023-03-22T00:35:02.642Z,12.70
2023-03-22T00:40:05.394Z,12.80
2023-03-22T00:45:08.431Z,12.90
2023-03-22T00:50:11.185Z,12.90
2023-03-22T00:55:13.260Z,13.00
2023-03-22T01:00:16.273Z,13.00
2023-03-22T01:05:21.854Z,13.10
2023-03-22T01:10:24.101Z,13.20
2023-03-22T01:15:26.240Z,13.20
2023-03-22T01:20:28.758Z,13.30
2023-03-22T01:25:30.930Z,13.30
2023-03-22T01:30:33.198Z,13.30
2023-03-22T01:35:35.911Z,13.30
2023-03-22T01:40:39.181Z,13.30
2023-03-22T01:45:51.858Z,13.20
2023-03-22T01:55:58.803Z,13.00
2023-03-22T02:01:02.276Z,13.00
2023-03-22T02:06:05.593Z,13.00
2023-03-22T02:11:13.600Z,13.00
2023-03-22T02:16:24.535Z,13.00
2023-03-22T02:21:48.180Z,13.10
2023-03-22T02:27:06.320Z,13.10
2023-03-22T02:32:21.685Z,13.10
2023-03-22T02:37:23.801Z,13.20
2023-03-22T02:42:51.096Z,13.20
2023-03-22T02:47:58.594Z,13.20
2023-03-22T02:53:16.532Z,13.20
2023-03-22T02:58:18.686Z,13.20
2023-03-22T03:03:21.255Z,13.10
2023-03-22T03:08:23.907Z,13.20
2023-03-22T03:13:26.290Z,13.20
2023-03-22T03:18:45.256Z,13.30
2023-03-22T03:23:56.526Z,13.30
2023-03-22T03:29:01.576Z,13.30
2023-03-22T03:34:10.823Z,13.30
2023-03-22T03:39:15.162Z,13.30
2023-03-22T03:44:17.680Z,13.30
2023-03-22T03:49:20.545Z,11.20
2023-03-22T03:54:23.276Z,13.30
2023-03-22T03:59:25.857Z,13.30
2023-03-22T04:04:30.808Z,13.30
2023-03-22T04:09:34.226Z,13.20
2023-03-22T04:14:38.254Z,13.20
2023-03-22T04:29:52.127Z,13.00
2023-03-22T04:34:56.951Z,13.00
2023-03-22T04:39:59.561Z,12.80
2023-03-22T04:45:03.996Z,12.70
2023-03-22T04:50:07.563Z,12.50
2023-03-22T04:55:11.750Z,12.40
2023-03-22T05:00:15.329Z,12.30
2023-03-22T05:05:18.781Z,12.10
2023-03-22T05:10:21.934Z,11.90
2023-03-22T05:20:26.439Z,11.60
2023-03-22T05:25:30.249Z,11.50
2023-03-22T05:30:33.702Z,11.40
2023-03-22T05:35:37.560Z,11.40
2023-03-22T05:40:40.312Z,11.40
2023-03-22T05:45:42.966Z,11.30
2023-03-22T05:50:47.559Z,11.30
2023-03-22T05:55:49.991Z,11.30
2023-03-22T06:00:52.855Z,11.40
2023-03-22T06:06:00.815Z,11.40
2023-03-22T06:11:05.507Z,11.50
2023-03-22T06:21:10.747Z,11.60
2023-03-22T06:26:13.087Z,11.70
2023-03-22T06:31:15.671Z,11.80
2023-03-22T06:36:17.927Z,11.80
2023-03-22T06:41:21.820Z,11.90
2023-03-22T06:46:26.245Z,12.00
2023-03-22T06:51:30.028Z,12.10
2023-03-22T06:56:32.389Z,12.20
2023-03-22T07:01:35.957Z,12.30
2023-03-22T07:06:38.170Z,12.50
2023-03-22T07:11:40.620Z,12.60
2023-03-22T07:16:43.620Z,12.70
2023-03-22T07:21:45.679Z,13.00
2023-03-22T07:26:48.178Z,13.20
2023-03-22T07:31:51.036Z,13.40
2023-03-22T07:36:56.903Z,13.60
2023-03-22T07:41:59.537Z,13.80
2023-03-22T07:47:06.029Z,14.00
2023-03-22T07:52:11.192Z,14.40
2023-03-22T07:57:13.546Z,14.70
2023-03-22T08:02:16.293Z,15.00
2023-03-22T08:07:19.256Z,15.30
2023-03-22T08:12:22.149Z,15.70
2023-03-22T08:17:26.162Z,16.00
2023-03-22T08:22:29.634Z,16.40
2023-03-22T08:27:38.014Z,16.80
2023-03-22T08:32:40.481Z,17.10
2023-03-22T08:37:43.340Z,17.40
2023-03-22T08:42:46.130Z,17.50
2023-03-22T08:47:48.615Z,17.60
2023-03-22T08:52:53.679Z,17.70
2023-03-22T08:57:58.975Z,17.70
2023-03-22T09:03:02.005Z,17.80
2023-03-22T09:08:06.629Z,17.90
2023-03-22T09:13:09.562Z,18.10
2023-03-22T09:18:13.274Z,18.40
2023-03-22T09:23:15.626Z,18.60
2023-03-22T09:28:19.032Z,18.70
2023-03-22T09:33:21.141Z,18.80
2023-03-22T09:38:25.294Z,18.90
2023-03-22T09:43:29.583Z,19.00
2023-03-22T09:48:38.081Z,19.00
2023-03-22T09:53:40.335Z,18.90
2023-03-22T09:59:00.853Z,19.00
2023-03-22T10:04:14.993Z,19.10
2023-03-22T10:09:26.405Z,19.20
2023-03-22T10:14:59.429Z,19.50
2023-03-22T10:20:20.460Z,19.70
2023-03-22T10:25:24.495Z,19.70
2023-03-22T10:30:28.514Z,19.70
2023-03-22T10:35:32.101Z,19.80
2023-03-22T10:40:35.257Z,20.00
2023-03-22T10:45:38.195Z,20.10
2023-03-22T10:50:43.176Z,20.20
2023-03-22T10:55:45.263Z,20.40
2023-03-22T11:00:49.172Z,20.50
2023-03-22T11:05:57.826Z,20.70
2023-03-22T11:11:00.376Z,21.00
2023-03-22T11:16:03.118Z,21.20
2023-03-22T11:21:10.877Z,21.50
2023-03-22T11:26:13.829Z,21.70
2023-03-22T11:31:16.816Z,22.00
2023-03-22T11:36:19.054Z,22.20
2023-03-22T11:46:24.315Z,22.60
2023-03-22T11:51:32.479Z,22.70
2023-03-22T11:56:34.564Z,23.10
2023-03-22T12:01:40.132Z,23.30
2023-03-22T12:06:42.924Z,23.50
2023-03-22T12:11:47.362Z,23.80
2023-03-22T12:16:51.155Z,24.00
2023-03-22T12:21:53.368Z,24.10
2023-03-22T12:26:57.999Z,24.10
2023-03-22T12:32:03.280Z,24.10
2023-03-22T12:37:06.917Z,24.10
2023-03-22T12:42:17.786Z,24.10
2023-03-22T12:47:24.944Z,24.00
2023-03-22T12:52:45.152Z,24.00
2023-03-22T12:57:52.539Z,23.80
2023-03-22T13:02:58.517Z,23.70
2023-03-22T13:08:04.013Z,23.60
2023-03-22T13:13:08.800Z,23.60
2023-03-22T13:18:33.604Z,23.50
2023-03-22T13:23:35.767Z,23.60
2023-03-22T13:28:38.795Z,23.60
2023-03-22T13:33:40.857Z,23.50
2023-03-22T13:38:43.492Z,23.50
2023-03-22T13:43:47.026Z,23.50
2023-03-22T13:48:52.238Z,23.50
2023-03-22T13:54:18.936Z,23.70
2023-03-22T13:59:21.014Z,24.00
2023-03-22T14:04:29.954Z,24.30
2023-03-22T14:09:34.055Z,24.30
2023-03-22T14:14:40.730Z,24.30
2023-03-22T14:19:43.163Z,24.40
